Time;durP1;ratioP1;P1;durP2;ratioP2;P2;SDS_P1;SDS_P2;PMS_P1;PMS_P2;Temp;Humidity;BMP_temperature;BMP_pressure;BME280_temperature;BME280_humidity;BME280_pressure;Samples;Min_cycle;Max_cycle;Signal;HPM_P1;HPM_P2
2023/04/28 00:01:48;;;;;;;6.00;3.20;;;12.30;59.60;;;;;;5033276;28;20111;-83
2023/04/28 00:04:13;;;;;;;4.82;3.38;;;12.20;59.90;;;;;;5033073;28;20497;-81
2023/04/28 00:06:39;;;;;;;4.47;2.95;;;12.20;60.10;;;;;;5033606;28;20358;-83
2023/04/28 00:09:09;;;;;;;5.00;3.33;;;12.20;60.00;;;;;;5034155;28;20030;-82
2023/04/28 00:11:36;;;;;;;5.60;3.42;;;12.20;60.40;;;;;;5032844;28;20192;-83
2023/04/28 00:14:01;;;;;;;8.15;2.97;;;12.10;60.30;;;;;;5032544;28;20112;-83
2023/04/28 00:16:27;;;;;;;8.45;2.83;;;12.10;60.40;;;;;;5032723;28;20117;-83
2023/04/28 00:18:52;;;;;;;4.97;3.15;;;12.10;60.70;;;;;;5033603;28;20029;-83
2023/04/28 00:21:18;;;;;;;5.80;2.92;;;12.10;60.50;;;;;;5033140;28;20070;-82
2023/04/28 00:23:44;;;;;;;6.35;2.88;;;12.10;60.40;;;;;;5032364;28;20081;-82
2023/04/28 00:26:11;;;;;;;5.15;2.80;;;12.10;60.70;;;;;;5033516;28;20036;-82
2023/04/28 00:28:36;;;;;;;6.78;3.35;;;12.10;60.60;;;;;;5016373;28;20032;-82
2023/04/28 00:31:12;;;;;;;6.03;3.10;;;12.10;60.50;;;;;;5016285;28;20034;-82
2023/04/28 00:33:39;;;;;;;5.43;2.60;;;12.10;60.60;;;;;;5032539;28;20033;-82
2023/04/28 00:36:05;;;;;;;5.55;2.83;;;12.10;60.50;;;;;;5015817;28;20048;-82
2023/04/28 00:38:30;;;;;;;5.95;2.90;;;12.20;60.70;;;;;;5032069;28;20040;-82
2023/04/28 00:40:56;;;;;;;6.13;2.72;;;12.10;60.40;;;;;;5033748;28;20485;-83
2023/04/28 00:43:22;;;;;;;6.25;2.50;;;12.00;60.50;;;;;;5032273;28;20374;-82
2023/04/28 00:45:51;;;;;;;5.20;2.50;;;12.00;61.10;;;;;;5015568;28;20485;-83
2023/04/28 00:48:17;;;;;;;5.32;2.75;;;11.90;60.90;;;;;;5033479;28;20108;-83
2023/04/28 00:50:44;;;;;;;5.25;2.80;;;12.00;61.10;;;;;;5016009;28;20078;-82
2023/04/28 00:53:10;;;;;;;5.90;2.50;;;12.00;61.00;;;;;;5032492;28;20052;-82
2023/04/28 00:55:37;;;;;;;4.50;2.83;;;11.90;61.50;;;;;;5031483;28;20497;-82
2023/04/28 00:58:04;;;;;;;5.10;2.70;;;12.00;61.10;;;;;;5033447;28;20061;-82
2023/04/28 01:00:29;;;;;;;5.63;2.78;;;11.90;61.40;;;;;;5032257;28;20470;-82
2023/04/28 01:02:56;;;;;;;5.85;2.88;;;11.90;61.30;;;;;;5015960;28;20048;-81
2023/04/28 01:05:24;;;;;;;8.40;2.67;;;11.90;61.50;;;;;;5033106;28;20044;-82
2023/04/28 01:07:50;;;;;;;3.47;2.60;;;11.80;61.60;;;;;;5032117;28;20056;-82
2023/04/28 01:10:16;;;;;;;6.55;2.90;;;11.80;61.70;;;;;;5033154;28;20057;-82
2023/04/28 01:12:41;;;;;;;7.55;2.88;;;11.80;61.90;;;;;;5032217;28;20033;-82
2023/04/28 01:15:16;;;;;;;6.53;3.08;;;11.90;62.00;;;;;;5032075;28;20095;-82
2023/04/28 01:17:42;;;;;;;5.60;3.08;;;11.80;63.10;;;;;;5031902;28;20029;-81
2023/04/28 01:20:08;;;;;;;5.28;2.72;;;11.80;63.70;;;;;;5031916;28;20057;-82
2023/04/28 01:22:34;;;;;;;5.10;2.88;;;11.80;64.30;;;;;;5033244;28;20041;-82
2023/04/28 01:25:00;;;;;;;7.13;3.03;;;11.80;65.00;;;;;;5015194;28;20389;-83
2023/04/28 01:27:25;;;;;;;7.70;3.10;;;11.80;65.30;;;;;;5033518;28;20485;-84
2023/04/28 01:29:51;;;;;;;3.60;3.03;;;11.80;66.30;;;;;;5032339;28;20076;-82
2023/04/28 01:32:17;;;;;;;4.35;3.17;;;11.80;66.70;;;;;;5015801;28;20068;-82
2023/04/28 01:34:42;;;;;;;4.53;2.50;;;11.70;66.90;;;;;;5015239;28;20429;-83
2023/04/28 01:37:08;;;;;;;3.75;2.65;;;11.80;66.70;;;;;;5031616;28;20037;-83
2023/04/28 01:39:34;;;;;;;6.00;2.92;;;11.90;67.50;;;;;;5015540;28;20406;-83
2023/04/28 01:42:01;;;;;;;5.78;3.00;;;11.90;68.00;;;;;;5037233;28;20037;-84
2023/04/28 01:44:26;;;;;;;5.85;2.92;;;11.90;67.50;;;;;;5036226;28;20029;-83
2023/04/28 01:46:52;;;;;;;5.18;3.10;;;11.90;68.50;;;;;;5034003;28;20389;-83
2023/04/28 01:49:18;;;;;;;5.32;2.95;;;11.90;69.20;;;;;;5019433;28;20087;-83
2023/04/28 01:51:43;;;;;;;6.70;3.00;;;11.80;68.70;;;;;;5037006;28;20025;-83
2023/04/28 01:54:09;;;;;;;6.20;3.30;;;11.90;68.80;;;;;;5034772;28;20029;-82
2023/04/28 01:56:35;;;;;;;5.43;3.13;;;11.80;69.20;;;;;;5035296;28;20532;-82
2023/04/28 01:59:01;;;;;;;5.78;2.85;;;11.80;70.00;;;;;;5019276;28;20413;-83
2023/04/28 02:01:26;;;;;;;6.38;3.60;;;11.80;69.50;;;;;;5035504;28;20029;-82
2023/04/28 02:03:53;;;;;;;5.20;2.90;;;11.80;68.90;;;;;;5035305;28;20060;-82
2023/04/28 02:06:19;;;;;;;5.57;2.70;;;11.80;69.30;;;;;;5035033;28;20128;-83
2023/04/28 02:08:45;;;;;;;6.18;3.38;;;11.90;69.70;;;;;;5018605;28;20123;-83
2023/04/28 02:11:11;;;;;;;7.43;3.15;;;11.80;69.00;;;;;;5018961;28;20030;-83
2023/04/28 02:13:36;;;;;;;8.60;3.35;;;11.80;69.00;;;;;;5035560;28;20050;-83
2023/04/28 02:16:02;;;;;;;5.20;3.00;;;11.70;68.90;;;;;;5035278;28;20095;-83
2023/04/28 02:18:28;;;;;;;6.75;3.45;;;11.70;69.10;;;;;;5035734;28;20037;-84
2023/04/28 02:20:53;;;;;;;10.27;3.10;;;11.70;70.10;;;;;;5036118;28;20041;-85
2023/04/28 02:23:19;;;;;;;7.00;2.97;;;11.60;69.90;;;;;;5035272;28;20029;-84
2023/04/28 02:25:45;;;;;;;7.15;3.25;;;11.60;70.00;;;;;;5034360;28;20516;-84
2023/04/28 02:28:10;;;;;;;5.22;2.83;;;11.60;70.10;;;;;;5035116;28;20036;-83
2023/04/28 02:30:36;;;;;;;4.20;2.80;;;11.60;70.00;;;;;;5035176;28;20033;-82
2023/04/28 02:33:02;;;;;;;6.20;2.97;;;11.50;69.80;;;;;;5018536;28;20029;-82
2023/04/28 02:35:27;;;;;;;4.32;2.80;;;11.60;70.10;;;;;;5018392;28;20132;-82
2023/04/28 02:37:53;;;;;;;5.15;3.38;;;11.50;70.20;;;;;;5035875;28;20044;-83
2023/04/28 02:40:18;;;;;;;5.30;3.03;;;11.50;69.80;;;;;;5036302;28;20050;-83
2023/04/28 02:42:44;;;;;;;7.43;3.22;;;11.50;70.40;;;;;;5036438;28;20029;-83
2023/04/28 02:45:10;;;;;;;5.28;3.05;;;11.50;69.90;;;;;;5034813;28;20086;-82
2023/04/28 02:47:36;;;;;;;5.82;3.13;;;11.50;70.00;;;;;;5017627;28;20033;-82
2023/04/28 02:50:02;;;;;;;4.63;3.25;;;11.50;70.30;;;;;;5034480;28;20044;-81
2023/04/28 02:52:27;;;;;;;5.63;3.10;;;11.40;70.50;;;;;;5036260;28;20033;-82
2023/04/28 02:54:56;;;;;;;4.63;3.13;;;11.40;70.60;;;;;;5035548;28;20103;-82
2023/04/28 02:57:22;;;;;;;3.85;2.90;;;11.40;70.90;;;;;;5019034;28;20030;-82
2023/04/28 02:59:48;;;;;;;6.10;3.13;;;11.40;70.60;;;;;;5034862;28;20029;-82
2023/04/28 03:02:14;;;;;;;4.40;3.08;;;11.40;70.00;;;;;;5037280;28;20030;-82
2023/04/28 03:04:40;;;;;;;4.50;3.03;;;11.30;70.20;;;;;;5037712;28;20029;-82
2023/04/28 03:07:06;;;;;;;5.80;3.15;;;11.30;70.40;;;;;;5038286;28;20032;-83
2023/04/28 03:09:32;;;;;;;5.85;3.13;;;11.30;70.00;;;;;;5040866;28;20076;-83
2023/04/28 03:11:57;;;;;;;6.28;3.45;;;11.30;70.10;;;;;;5041499;28;20037;-83
2023/04/28 03:14:23;;;;;;;5.10;2.95;;;11.30;70.00;;;;;;5019796;28;20133;-82
2023/04/28 03:16:49;;;;;;;7.78;3.00;;;11.20;69.80;;;;;;5036024;28;20128;-83
2023/04/28 03:19:15;;;;;;;7.05;3.30;;;11.10;70.50;;;;;;5038026;28;20042;-81
2023/04/28 03:21:40;;;;;;;4.30;3.15;;;11.20;70.40;;;;;;5034403;28;20036;-82
2023/04/28 03:24:06;;;;;;;5.07;3.00;;;11.20;70.70;;;;;;5033725;28;20029;-81
2023/04/28 03:26:32;;;;;;;6.28;3.42;;;11.20;70.30;;;;;;5034920;28;20017;-82
2023/04/28 03:28:58;;;;;;;5.60;2.63;;;11.20;70.20;;;;;;5037690;28;20105;-82
2023/04/28 03:31:24;;;;;;;6.88;3.35;;;11.10;70.50;;;;;;5040295;28;20038;-82
2023/04/28 03:33:49;;;;;;;6.25;3.22;;;11.10;70.70;;;;;;5042560;28;20113;-82
2023/04/28 03:36:15;;;;;;;6.45;3.28;;;11.10;70.70;;;;;;5022780;28;20049;-82
2023/04/28 03:38:41;;;;;;;6.03;3.38;;;11.10;70.80;;;;;;5041506;28;20144;-83
2023/04/28 03:41:06;;;;;;;4.13;3.28;;;11.10;70.80;;;;;;5038609;28;20057;-82
2023/04/28 03:43:34;;;;;;;7.28;3.80;;;11.00;71.50;;;;;;5040818;28;20026;-82
2023/04/28 03:46:00;;;;;;;3.75;2.70;;;11.00;71.30;;;;;;5050859;28;20036;-82
2023/04/28 03:48:26;;;;;;;8.07;3.42;;;11.00;71.10;;;;;;5055841;28;20036;-82
2023/04/28 03:50:51;;;;;;;6.53;2.83;;;11.10;71.60;;;;;;5053406;28;20014;-82
2023/04/28 03:53:17;;;;;;;9.68;3.80;;;11.10;71.40;;;;;;5040532;28;20049;-82
2023/04/28 03:55:43;;;;;;;6.20;3.38;;;11.10;71.60;;;;;;5056937;28;20025;-81
2023/04/28 03:58:09;;;;;;;6.85;3.50;;;11.20;71.70;;;;;;5058937;28;20028;-82
2023/04/28 04:00:35;;;;;;;7.20;3.22;;;11.20;71.50;;;;;;5040904;28;20013;-81
2023/04/28 04:03:00;;;;;;;6.82;3.55;;;11.20;71.90;;;;;;5042038;28;20009;-81
2023/04/28 04:05:26;;;;;;;9.27;4.15;;;11.20;71.90;;;;;;5058537;28;20040;-81
2023/04/28 04:07:52;;;;;;;6.28;3.72;;;11.20;71.60;;;;;;5059217;28;20017;-81
2023/04/28 04:10:17;;;;;;;7.70;3.63;;;11.20;71.70;;;;;;5058315;28;20096;-82
2023/04/28 04:12:43;;;;;;;5.45;3.53;;;11.20;72.10;;;;;;5040553;28;20010;-82
2023/04/28 04:15:09;;;;;;;12.23;3.95;;;11.10;72.60;;;;;;5041308;28;20036;-82
2023/04/28 04:17:35;;;;;;;4.65;3.50;;;11.20;72.90;;;;;;5058672;28;20085;-82
2023/04/28 04:20:00;;;;;;;4.68;3.50;;;11.10;72.90;;;;;;5058090;28;20021;-82
2023/04/28 04:22:26;;;;;;;6.72;3.50;;;11.10;73.10;;;;;;5058209;28;20094;-82
2023/04/28 04:24:52;;;;;;;5.93;3.20;;;11.10;73.20;;;;;;5056989;28;20033;-82
2023/04/28 04:27:18;;;;;;;7.35;3.78;;;11.20;73.50;;;;;;5057996;28;20036;-82
2023/04/28 04:29:43;;;;;;;8.07;4.20;;;11.20;73.70;;;;;;5056271;28;20025;-83
2023/04/28 04:32:09;;;;;;;8.88;4.10;;;11.20;74.00;;;;;;5040153;28;20084;-82
2023/04/28 04:34:35;;;;;;;5.45;3.60;;;11.20;74.10;;;;;;5041211;28;20040;-82
2023/04/28 04:37:01;;;;;;;9.30;4.35;;;11.20;74.20;;;;;;5056098;28;20053;-82
2023/04/28 04:39:27;;;;;;;8.73;3.88;;;11.20;75.00;;;;;;5055260;28;20025;-82
2023/04/28 04:41:52;;;;;;;8.95;3.97;;;11.20;74.40;;;;;;5051476;28;20528;-82
2023/04/28 04:44:18;;;;;;;6.40;4.35;;;11.20;74.80;;;;;;5051132;28;20041;-82
2023/04/28 04:46:45;;;;;;;7.18;4.07;;;11.20;75.20;;;;;;5052410;28;20034;-80
2023/04/28 04:49:10;;;;;;;11.02;4.78;;;11.20;75.80;;;;;;5053846;28;20034;-82
2023/04/28 04:51:36;;;;;;;11.95;4.70;;;11.20;75.90;;;;;;5035340;28;20036;-82
2023/04/28 04:54:02;;;;;;;9.15;4.90;;;11.20;76.10;;;;;;5036496;28;20045;-82
2023/04/28 04:56:27;;;;;;;7.57;4.60;;;11.20;76.30;;;;;;5057149;28;20068;-83
2023/04/28 04:58:53;;;;;;;7.15;4.55;;;11.20;76.90;;;;;;5056917;28;20378;-82
2023/04/28 05:01:19;;;;;;;6.95;4.93;;;11.20;76.80;;;;;;5055819;28;20029;-82
2023/04/28 05:03:44;;;;;;;6.05;4.43;;;11.20;77.20;;;;;;5055999;28;20037;-82
2023/04/28 05:06:10;;;;;;;7.03;5.38;;;11.20;77.30;;;;;;5056024;28;20020;-82
2023/04/28 05:08:36;;;;;;;7.03;5.07;;;11.30;77.70;;;;;;5038528;28;20021;-83
2023/04/28 05:11:02;;;;;;;10.23;5.38;;;11.30;77.90;;;;;;5039121;28;20049;-82
2023/04/28 05:13:27;;;;;;;8.73;5.82;;;11.30;78.30;;;;;;5041489;28;20022;-82
2023/04/28 05:15:53;;;;;;;10.52;5.43;;;11.30;79.00;;;;;;5057383;28;20065;-80
2023/04/28 05:20:49;;;;;;;9.13;5.95;;;11.20;79.50;;;;;;5036821;28;20029;-80
2023/04/28 05:23:15;;;;;;;13.10;6.80;;;11.30;80.00;;;;;;5022571;28;20010;-80
2023/04/28 05:25:41;;;;;;;10.80;7.25;;;11.30;81.20;;;;;;5042287;28;20038;-81
2023/04/28 05:28:10;;;;;;;12.30;7.05;;;11.30;82.10;;;;;;5038784;28;20042;-81
2023/04/28 05:30:36;;;;;;;14.38;7.80;;;11.30;84.00;;;;;;5041754;28;20025;-80
2023/04/28 05:33:02;;;;;;;11.50;7.68;;;11.30;84.80;;;;;;5019604;28;20501;-80
2023/04/28 05:35:27;;;;;;;15.73;8.20;;;11.20;85.70;;;;;;5016110;28;20061;-80
2023/04/28 05:37:53;;;;;;;13.73;7.60;;;11.30;86.00;;;;;;5006584;28;20061;-80
2023/04/28 05:40:19;;;;;;;15.45;8.23;;;11.30;86.60;;;;;;5003289;28;20026;-80
2023/04/28 05:42:45;;;;;;;13.27;8.00;;;11.40;86.90;;;;;;5029062;28;20030;-80
2023/04/28 05:45:11;;;;;;;11.98;7.57;;;11.50;87.70;;;;;;5000535;28;20390;-80
2023/04/28 05:47:36;;;;;;;14.60;9.32;;;11.40;88.10;;;;;;5004879;28;20030;-81
2023/04/28 05:50:02;;;;;;;16.83;9.52;;;11.40;90.00;;;;;;5020098;28;20026;-78
2023/04/28 05:52:28;;;;;;;13.45;9.18;;;11.30;91.00;;;;;;5041393;28;20030;-81
2023/04/28 05:54:54;;;;;;;13.02;9.48;;;11.30;92.30;;;;;;5040698;28;20029;-80
2023/04/28 05:57:19;;;;;;;13.23;8.55;;;11.20;93.50;;;;;;5023674;28;20049;-80
2023/04/28 05:59:45;;;;;;;11.50;8.35;;;11.20;94.00;;;;;;5007604;28;20049;-78
2023/04/28 06:02:11;;;;;;;17.13;8.60;;;11.30;93.90;;;;;;5041502;28;20014;-80
2023/04/28 06:04:37;;;;;;;16.50;9.68;;;11.40;94.20;;;;;;5023896;28;20024;-80
2023/04/28 06:07:03;;;;;;;15.70;9.38;;;11.40;95.20;;;;;;5007534;28;20034;-81
2023/04/28 06:09:29;;;;;;;14.30;10.35;;;11.40;95.30;;;;;;5022419;28;20033;-81
2023/04/28 06:11:55;;;;;;;11.88;9.02;;;11.40;96.00;;;;;;5007406;28;20662;-81
2023/04/28 06:14:22;;;;;;;17.67;9.65;;;11.50;96.10;;;;;;5023480;28;20041;-80
2023/04/28 06:16:47;;;;;;;15.65;10.27;;;11.60;96.40;;;;;;5040356;28;20014;-81
2023/04/28 06:19:14;;;;;;;17.42;10.70;;;11.60;97.70;;;;;;5022865;28;20061;-81
2023/04/28 06:21:40;;;;;;;12.90;10.75;;;11.60;98.80;;;;;;5023069;28;20074;-81
2023/04/28 06:24:06;;;;;;;19.17;11.20;;;11.50;99.90;;;;;;5022124;28;20044;-82
2023/04/28 06:26:31;;;;;;;17.38;11.93;;;11.50;99.90;;;;;;5023564;28;20101;-81
2023/04/28 06:28:57;;;;;;;15.57;10.77;;;11.60;99.90;;;;;;5023178;28;20010;-80
2023/04/28 06:31:23;;;;;;;19.40;12.20;;;11.50;99.90;;;;;;5006966;28;20034;-81
2023/04/28 06:33:48;;;;;;;19.58;11.98;;;11.50;99.90;;;;;;5023674;28;20022;-81
2023/04/28 06:36:16;;;;;;;14.13;10.45;;;11.50;99.90;;;;;;5020618;28;20046;-81
2023/04/28 06:38:42;;;;;;;14.40;10.43;;;11.50;99.90;;;;;;5002862;28;20018;-82
2023/04/28 06:41:09;;;;;;;18.25;10.95;;;11.60;99.90;;;;;;4998869;28;20026;-81
2023/04/28 06:43:35;;;;;;;18.88;12.10;;;11.70;99.90;;;;;;5024717;28;20109;-81
2023/04/28 06:46:01;;;;;;;17.67;11.73;;;11.70;99.90;;;;;;5018488;28;20035;-84
2023/04/28 06:48:27;;;;;;;19.17;12.57;;;11.70;99.90;;;;;;5016264;28;20022;-84
2023/04/28 06:50:52;;;;;;;19.67;12.65;;;11.70;99.90;;;;;;5009850;28;20406;-83
2023/04/28 06:53:18;;;;;;;20.63;13.25;;;11.80;99.90;;;;;;4967093;28;20091;-85
2023/04/28 06:55:44;;;;;;;21.98;13.52;;;11.80;99.90;;;;;;5024811;28;20061;-81
2023/04/28 06:58:10;;;;;;;20.15;11.95;;;11.80;99.90;;;;;;5008547;28;20454;-81
2023/04/28 07:00:36;;;;;;;19.35;12.70;;;11.90;99.90;;;;;;5000646;28;20033;-80
2023/04/28 07:03:01;;;;;;;20.92;11.05;;;12.00;99.90;;;;;;4989627;28;20026;-84
2023/04/28 07:05:27;;;;;;;22.13;12.82;;;12.10;99.90;;;;;;5007532;28;20010;-82
2023/04/28 07:07:53;;;;;;;20.60;13.70;;;12.10;99.90;;;;;;5008693;28;20097;-83
2023/04/28 07:10:19;;;;;;;21.55;13.45;;;12.20;99.90;;;;;;4982941;28;20108;-83
2023/04/28 07:12:44;;;;;;;23.02;14.75;;;12.20;99.90;;;;;;4983290;28;20029;-86
2023/04/28 07:15:10;;;;;;;17.38;12.10;;;12.30;99.90;;;;;;5020241;28;20122;-81
2023/04/28 07:17:36;;;;;;;22.23;14.77;;;12.30;99.90;;;;;;4988705;28;20041;-84
2023/04/28 07:20:04;;;;;;;31.33;16.33;;;12.40;99.90;;;;;;5024175;28;20054;-85
2023/04/28 07:22:30;;;;;;;22.02;14.60;;;12.50;99.90;;;;;;5026567;28;20117;-85
2023/04/28 07:24:55;;;;;;;23.10;13.68;;;12.40;99.90;;;;;;4999628;28;20133;-85
2023/04/28 07:27:22;;;;;;;24.42;15.10;;;12.40;99.90;;;;;;5000283;28;20050;-84
2023/04/28 07:29:47;;;;;;;22.23;15.43;;;12.40;99.90;;;;;;5018794;28;20022;-86
2023/04/28 07:32:13;;;;;;;21.02;14.02;;;12.40;99.90;;;;;;5003549;28;20131;-86
2023/04/28 07:34:38;;;;;;;22.40;14.23;;;12.40;99.90;;;;;;5002451;28;20029;-86
2023/04/28 07:37:05;;;;;;;20.60;13.93;;;12.40;99.90;;;;;;4983491;28;20092;-84
2023/04/28 07:39:32;;;;;;;20.02;14.15;;;12.40;99.90;;;;;;5019746;28;20021;-81
2023/04/28 07:41:58;;;;;;;24.88;13.70;;;12.40;99.90;;;;;;5019936;28;20026;-84
2023/04/28 07:44:24;;;;;;;20.80;13.88;;;12.50;99.90;;;;;;5019756;28;20087;-80
2023/04/28 07:46:50;;;;;;;18.35;12.15;;;12.60;99.90;;;;;;4975020;28;20038;-80
2023/04/28 07:49:16;;;;;;;21.60;14.23;;;12.60;99.90;;;;;;5013970;28;20034;-82
2023/04/28 07:51:41;;;;;;;19.67;13.52;;;12.70;99.90;;;;;;5023012;28;20029;-82
2023/04/28 07:54:14;;;;;;;25.48;15.05;;;12.80;99.90;;;;;;5000317;28;20041;-78
2023/04/28 07:56:39;;;;;;;23.52;14.50;;;12.80;99.90;;;;;;5019690;28;20101;-84
2023/04/28 07:59:05;;;;;;;17.10;12.32;;;12.90;99.90;;;;;;4984812;28;20069;-81
2023/04/28 08:01:31;;;;;;;23.33;14.82;;;12.90;99.90;;;;;;4997931;28;20038;-83
2023/04/28 08:03:57;;;;;;;19.42;14.23;;;13.00;99.90;;;;;;4997945;28;20034;-81
2023/04/28 08:06:22;;;;;;;19.13;13.00;;;13.00;99.90;;;;;;5014545;28;20075;-78
2023/04/28 08:08:48;;;;;;;20.45;12.73;;;13.00;99.90;;;;;;5016389;28;20034;-78
2023/04/28 08:11:14;;;;;;;18.85;13.60;;;13.00;99.90;;;;;;4998736;28;20044;-82
2023/04/28 08:13:40;;;;;;;19.23;13.75;;;13.10;99.90;;;;;;5002791;28;20061;-83
2023/04/28 08:16:06;;;;;;;16.75;13.43;;;13.10;99.90;;;;;;5018978;28;20052;-81
2023/04/28 08:18:31;;;;;;;20.15;12.75;;;13.10;99.90;;;;;;5016785;28;20029;-79
2023/04/28 08:20:57;;;;;;;17.27;13.60;;;13.20;99.90;;;;;;5016598;28;20034;-80
2023/04/28 08:23:27;;;;;;;20.38;13.68;;;13.20;99.90;;;;;;4999115;28;20584;-81
2023/04/28 08:25:53;;;;;;;20.90;15.02;;;13.10;99.90;;;;;;5006796;28;20037;-80
2023/04/28 08:28:18;;;;;;;22.67;14.88;;;13.10;99.90;;;;;;5025561;28;20026;-80
2023/04/28 08:30:44;;;;;;;22.63;14.63;;;13.00;99.90;;;;;;5017780;28;20454;-81
2023/04/28 08:33:10;;;;;;;21.00;15.38;;;13.00;99.90;;;;;;4967712;28;20414;-78
2023/04/28 08:35:35;;;;;;;16.60;13.68;;;13.10;99.90;;;;;;5016719;28;20034;-80
2023/04/28 08:38:01;;;;;;;21.00;15.73;;;13.20;99.90;;;;;;5018128;28;20502;-80
2023/04/28 08:40:28;;;;;;;19.88;13.13;;;13.20;99.90;;;;;;4979718;28;20037;-81
2023/04/28 08:42:54;;;;;;;23.15;14.95;;;13.20;99.90;;;;;;4982485;28;20150;-80
2023/04/28 08:45:22;;;;;;;22.98;15.45;;;13.30;99.90;;;;;;4985835;28;20042;-80
2023/04/28 08:47:50;;;;;;;21.25;13.88;;;13.40;99.90;;;;;;5005027;28;20113;-80
2023/04/28 08:50:21;;;;;;;22.00;14.20;;;13.40;99.90;;;;;;5005143;28;20030;-75
2023/04/28 08:52:47;;;;;;;21.67;14.30;;;13.40;99.90;;;;;;5007099;28;20018;-81
2023/04/28 08:55:13;;;;;;;20.58;13.98;;;13.50;99.90;;;;;;5011243;28;20061;-81
2023/04/28 08:57:44;;;;;;;19.30;13.27;;;13.50;99.90;;;;;;5009117;28;20011;-79
2023/04/28 09:00:11;;;;;;;21.65;15.15;;;13.60;99.90;;;;;;4988960;28;20026;-79
2023/04/28 09:02:40;;;;;;;19.85;14.82;;;13.70;99.90;;;;;;4994756;28;20113;-78
2023/04/28 09:05:12;;;;;;;19.80;14.75;;;13.60;99.90;;;;;;4997076;28;20037;-80
2023/04/28 09:07:39;;;;;;;22.17;15.75;;;13.60;99.90;;;;;;4996729;28;20128;-80
2023/04/28 09:10:17;;;;;;;28.35;14.60;;;13.60;99.90;;;;;;4998789;28;20086;-80
2023/04/28 09:12:43;;;;;;;16.52;13.23;;;13.50;99.90;;;;;;4996701;28;20433;-80
2023/04/28 09:15:09;;;;;;;19.50;14.65;;;13.50;99.90;;;;;;4977370;28;20066;-78
2023/04/28 09:17:48;;;;;;;18.10;14.70;;;13.60;99.90;;;;;;4977204;28;20058;-80
2023/04/28 09:20:24;;;;;;;18.23;14.05;;;13.70;99.90;;;;;;4990482;28;20062;-82
2023/04/28 09:22:52;;;;;;;16.42;12.35;;;13.70;99.90;;;;;;4977149;28;20396;-79
2023/04/28 09:25:20;;;;;;;20.42;14.38;;;13.70;99.90;;;;;;4977005;28;20039;-80
2023/04/28 09:27:46;;;;;;;18.90;13.55;;;13.70;99.90;;;;;;4985925;28;20014;-80
2023/04/28 09:30:12;;;;;;;19.17;12.68;;;13.80;99.90;;;;;;4975520;28;20027;-77
2023/04/28 09:32:38;;;;;;;24.25;14.60;;;13.90;99.90;;;;;;4974456;28;20376;-77
2023/04/28 09:35:06;;;;;;;22.95;14.52;;;13.90;99.90;;;;;;4989645;28;20053;-78
2023/04/28 09:37:32;;;;;;;16.67;12.32;;;13.90;99.90;;;;;;4974952;28;20031;-78
2023/04/28 09:40:07;;;;;;;18.33;13.70;;;13.90;99.90;;;;;;4989516;28;20407;-78
2023/04/28 09:42:40;;;;;;;18.05;12.50;;;14.00;99.90;;;;;;4974392;28;20023;-77
2023/04/28 09:45:13;;;;;;;16.30;11.48;;;13.90;99.90;;;;;;4972819;28;20125;-78
2023/04/28 09:47:39;;;;;;;;;;;14.00;99.90;;;;;;4974835;28;20035;-78
2023/04/28 09:50:10;;;;;;;19.10;11.57;;;14.00;99.90;;;;;;4973047;28;19910;-78
2023/04/28 09:52:36;;;;;;;15.73;12.10;;;14.00;99.90;;;;;;4974082;28;20027;-78
2023/04/28 09:55:07;;;;;;;16.73;11.45;;;14.00;99.90;;;;;;4973881;28;20050;-78
2023/04/28 09:57:34;;;;;;;16.77;12.70;;;14.00;99.90;;;;;;4973113;28;20052;-78
2023/04/28 10:00:05;;;;;;;16.45;13.18;;;14.00;99.90;;;;;;4974180;28;20030;-78
2023/04/28 10:02:32;;;;;;;18.58;12.70;;;14.00;99.90;;;;;;4988662;28;20039;-78
2023/04/28 10:04:58;;;;;;;16.52;12.75;;;14.00;99.90;;;;;;4973554;28;20031;-78
2023/04/28 10:07:26;;;;;;;16.85;12.45;;;14.10;99.90;;;;;;4972472;28;20078;-78
2023/04/28 10:09:52;;;;;;;18.08;12.45;;;14.00;99.90;;;;;;4973287;28;20042;-78
2023/04/28 10:12:22;;;;;;;17.73;13.45;;;14.00;99.90;;;;;;4975957;28;20085;-78
2023/04/28 10:14:53;;;;;;;19.15;13.40;;;14.10;99.90;;;;;;4977266;28;20511;-78
2023/04/28 10:17:20;;;;;;;17.42;12.82;;;14.00;99.90;;;;;;4992035;28;20031;-78
2023/04/28 10:19:49;;;;;;;16.13;12.98;;;14.00;99.90;;;;;;4975934;28;20059;-77
2023/04/28 10:22:49;;;;;;;16.35;13.00;;;14.10;99.90;;;;;;4975867;28;20030;-77
2023/04/28 10:25:30;;;;;;;15.13;12.40;;;14.10;99.90;;;;;;4976920;28;20093;-78
2023/04/28 10:27:58;;;;;;;16.85;13.32;;;14.20;99.90;;;;;;4977269;28;20026;-78
2023/04/28 10:30:26;;;;;;;17.83;13.13;;;14.20;99.90;;;;;;4977278;28;20031;-78
2023/04/28 10:33:13;;;;;;;16.70;13.88;;;14.20;99.90;;;;;;4991902;28;20034;-78
2023/04/28 10:35:41;;;;;;;19.08;15.38;;;14.20;99.90;;;;;;4977023;28;20042;-77
2023/04/28 10:38:13;;;;;;;18.73;14.40;;;14.30;99.90;;;;;;4976749;28;20023;-78
2023/04/28 10:40:41;;;;;;;16.35;13.23;;;14.30;99.90;;;;;;4977154;28;20031;-78
2023/04/28 10:43:09;;;;;;;17.33;14.00;;;14.30;99.90;;;;;;4976728;28;20158;-78
2023/04/28 10:45:53;;;;;;;21.70;14.25;;;14.30;99.90;;;;;;4977035;28;20038;-78
2023/04/28 10:48:42;;;;;;;15.65;13.60;;;14.40;99.90;;;;;;4975444;28;20038;-78
2023/04/28 10:51:13;;;;;;;20.55;16.40;;;14.40;99.90;;;;;;4976501;28;20031;-78
2023/04/28 10:53:42;;;;;;;19.83;14.10;;;14.40;99.90;;;;;;4975881;28;20023;-78
2023/04/28 10:56:15;;;;;;;16.92;13.73;;;14.50;99.90;;;;;;4976219;28;20031;-78
2023/04/28 10:58:42;;;;;;;17.33;14.98;;;14.50;99.90;;;;;;4991467;28;20089;-78
2023/04/28 11:01:20;;;;;;;18.45;16.13;;;14.50;99.90;;;;;;4991702;28;20035;-78
2023/04/28 11:03:50;;;;;;;18.13;15.00;;;14.50;99.90;;;;;;4976532;28;20038;-78
2023/04/28 11:06:34;;;;;;;16.90;15.10;;;14.60;99.90;;;;;;4976852;28;20077;-78
2023/04/28 11:09:31;;;;;;;15.73;14.13;;;14.60;99.90;;;;;;4976252;28;20081;-78
2023/04/28 11:12:00;;;;;;;13.40;12.10;;;14.60;99.90;;;;;;4976399;28;20085;-78
2023/04/28 11:14:28;;;;;;;15.05;13.57;;;14.60;99.90;;;;;;4975049;28;20384;-78
2023/04/28 11:17:00;;;;;;;14.55;12.98;;;14.50;99.90;;;;;;4976252;28;20030;-78
2023/04/28 11:19:37;;;;;;;16.15;14.45;;;14.50;99.90;;;;;;4974787;28;20443;-79
2023/04/28 11:22:15;;;;;;;15.75;14.25;;;14.50;99.90;;;;;;4974410;28;20456;-79
2023/04/28 11:24:41;;;;;;;12.77;11.45;;;14.50;99.90;;;;;;4976134;28;20030;-79
2023/04/28 11:27:07;;;;;;;12.13;10.80;;;14.50;99.90;;;;;;4978304;28;20533;-80
2023/04/28 11:29:38;;;;;;;12.43;10.88;;;14.50;99.90;;;;;;4978002;28;20388;-81
2023/04/28 11:32:05;;;;;;;12.80;11.50;;;14.50;99.90;;;;;;4977723;28;20379;-83
2023/04/28 11:34:31;;;;;;;12.52;11.18;;;14.60;99.90;;;;;;4980539;28;20232;-83
2023/04/28 11:36:57;;;;;;;12.18;11.02;;;14.60;99.90;;;;;;4981282;28;20474;-83
2023/04/28 11:39:31;;;;;;;10.88;9.88;;;14.50;99.90;;;;;;5000055;28;20035;-84
2023/04/28 11:42:02;;;;;;;10.25;9.35;;;14.60;99.90;;;;;;4981301;28;20106;-83
2023/04/28 11:44:30;;;;;;;10.82;9.70;;;14.60;99.90;;;;;;4987568;28;20054;-82
2023/04/28 11:47:01;;;;;;;11.55;10.43;;;14.60;99.90;;;;;;4989081;28;20046;-84
2023/04/28 11:49:44;;;;;;;10.98;9.98;;;14.60;99.90;;;;;;4983277;28;20391;-81
2023/04/28 11:52:10;;;;;;;10.63;9.63;;;14.50;99.90;;;;;;4980313;28;20027;-84
2023/04/28 11:54:37;;;;;;;13.13;11.52;;;14.50;99.90;;;;;;4976876;28;20039;-84
2023/04/28 11:57:03;;;;;;;13.27;11.98;;;14.50;99.90;;;;;;4991308;28;20118;-85
2023/04/28 11:59:38;;;;;;;12.93;11.57;;;14.50;99.90;;;;;;4977930;28;20031;-84
2023/04/28 12:02:06;;;;;;;13.45;12.15;;;14.60;99.90;;;;;;4977768;28;20042;-82
2023/04/28 12:04:39;;;;;;;14.30;12.82;;;14.60;99.90;;;;;;4976528;28;20047;-82
2023/04/28 12:07:13;;;;;;;14.23;12.73;;;14.60;99.90;;;;;;4982678;28;20034;-79
2023/04/28 12:09:42;;;;;;;15.90;14.18;;;14.70;99.90;;;;;;5002513;28;20079;-82
2023/04/28 12:12:08;;;;;;;16.65;14.95;;;14.70;99.90;;;;;;4976021;28;20031;-84
2023/04/28 12:15:04;;;;;;;17.70;14.80;;;14.60;99.90;;;;;;4979199;28;20039;-82
2023/04/28 12:17:33;;;;;;;18.15;15.68;;;14.60;99.90;;;;;;4967919;28;20364;-83
2023/04/28 12:20:00;;;;;;;16.92;14.57;;;14.60;99.90;;;;;;4986554;28;20054;-82
2023/04/28 12:22:26;;;;;;;17.90;15.25;;;14.60;99.90;;;;;;4998380;28;20026;-81
2023/04/28 12:25:21;;;;;;;15.93;14.18;;;14.60;99.90;;;;;;4999924;28;20411;-83
2023/04/28 12:28:06;;;;;;;17.92;15.52;;;14.60;99.90;;;;;;4973116;28;20073;-79
2023/04/28 12:30:37;;;;;;;15.70;13.77;;;14.60;99.90;;;;;;4993581;28;20026;-81
2023/04/28 12:33:03;;;;;;;16.30;13.77;;;14.50;99.90;;;;;;4977992;28;20023;-81
2023/04/28 12:35:29;;;;;;;16.50;14.15;;;14.50;99.90;;;;;;4977141;28;20038;-79
2023/04/28 12:37:57;;;;;;;16.83;13.52;;;14.50;99.90;;;;;;4977182;28;20471;-79
2023/04/28 12:40:23;;;;;;;15.13;13.50;;;14.50;99.90;;;;;;4993743;28;20030;-79